Time;durP1;ratioP1;P1;durP2;ratioP2;P2;SDS_P1;SDS_P2;PMS_P1;PMS_P2;Temp;Humidity;BMP_temperature;BMP_pressure;BME280_temperature;BME280_humidity;BME280_pressure;Samples;Min_cycle;Max_cycle;Signal;HPM_P1;HPM_P2
2023/08/16 00:01:18;;;;;;;4.87;4.47;;;26.20;62.90;;;;;;5031758;28;20555;-73
2023/08/16 00:03:43;;;;;;;4.10;3.80;;;26.20;62.90;;;;;;5031766;28;20172;-72
2023/08/16 00:06:11;;;;;;;4.50;4.10;;;26.20;62.90;;;;;;5031673;28;20187;-72
2023/08/16 00:08:38;;;;;;;4.40;4.00;;;26.20;62.90;;;;;;5032180;28;20547;-73
2023/08/16 00:11:04;;;;;;;4.30;3.93;;;26.20;62.90;;;;;;5035474;28;20441;-72
2023/08/16 00:13:29;;;;;;;4.37;4.07;;;26.20;62.90;;;;;;5017701;28;20547;-73
2023/08/16 00:15:55;;;;;;;4.33;3.93;;;26.20;62.90;;;;;;5035470;28;20410;-73
2023/08/16 00:18:21;;;;;;;4.10;3.70;;;26.20;62.90;;;;;;5035462;28;20684;-73
2023/08/16 00:20:46;;;;;;;4.23;3.80;;;26.20;62.90;;;;;;5017550;28;20195;-73
2023/08/16 00:23:12;;;;;;;4.87;4.47;;;26.20;62.90;;;;;;5035312;28;20179;-73
2023/08/16 00:25:39;;;;;;;4.20;3.90;;;26.20;62.90;;;;;;5035329;28;20176;-73
2023/08/16 00:28:04;;;;;;;3.93;3.60;;;26.20;62.90;;;;;;5017396;28;20217;-73
2023/08/16 00:30:30;;;;;;;4.90;4.37;;;26.20;62.90;;;;;;5035135;28;20964;-73
2023/08/16 00:32:56;;;;;;;4.50;3.50;;;26.20;62.90;;;;;;5035055;28;20769;-72
2023/08/16 00:35:21;;;;;;;4.50;4.10;;;26.20;62.90;;;;;;5034606;28;20218;-73
2023/08/16 00:37:47;;;;;;;4.63;4.23;;;26.20;62.90;;;;;;5017404;28;20258;-73
2023/08/16 00:40:14;;;;;;;4.20;3.80;;;26.20;62.90;;;;;;5034985;28;20322;-73
2023/08/16 00:42:40;;;;;;;4.40;4.00;;;26.20;62.90;;;;;;5034933;28;20180;-72
2023/08/16 00:45:06;;;;;;;4.17;3.80;;;26.20;62.90;;;;;;5033991;28;20471;-73
2023/08/16 00:47:33;;;;;;;4.70;4.33;;;26.20;62.80;;;;;;5034787;28;20656;-72
2023/08/16 00:49:59;;;;;;;4.90;4.13;;;26.20;62.80;;;;;;5034617;28;20438;-72
2023/08/16 00:52:24;;;;;;;4.23;3.93;;;26.20;62.90;;;;;;5034779;28;20607;-73
2023/08/16 00:54:50;;;;;;;3.87;3.57;;;26.20;62.90;;;;;;5034741;28;20684;-72
2023/08/16 00:57:16;;;;;;;4.17;3.60;;;26.20;62.80;;;;;;5034962;28;20190;-72
2023/08/16 00:59:44;;;;;;;3.40;3.10;;;26.20;62.80;;;;;;5034830;28;20994;-73
2023/08/16 01:02:10;;;;;;;4.40;4.10;;;26.20;62.80;;;;;;5017063;28;20810;-73
2023/08/16 01:04:36;;;;;;;3.87;3.57;;;26.20;62.90;;;;;;5034571;28;20923;-73
2023/08/16 01:07:01;;;;;;;3.87;3.57;;;26.20;62.80;;;;;;5034563;28;20410;-72
2023/08/16 01:09:27;;;;;;;4.03;3.70;;;26.20;62.80;;;;;;5034670;28;20202;-73
2023/08/16 01:12:14;;;;;;;4.20;3.80;;;26.20;62.80;;;;;;5034620;28;20675;-73
2023/08/16 01:14:53;;;;;;;4.37;4.07;;;26.20;62.80;;;;;;5034647;28;21018;-72
2023/08/16 01:17:23;;;;;;;4.30;4.00;;;26.20;62.80;;;;;;5016900;28;20414;-73
2023/08/16 01:19:53;;;;;;;4.10;3.50;;;26.20;62.90;;;;;;5034161;28;20437;-72
2023/08/16 01:22:36;;;;;;;3.80;3.40;;;26.20;62.90;;;;;;5034258;28;20411;-73
2023/08/16 01:25:19;;;;;;;4.10;3.80;;;26.20;62.90;;;;;;5034175;28;20401;-73
2023/08/16 01:27:45;;;;;;;3.90;3.60;;;26.20;62.90;;;;;;5034215;28;20390;-73
2023/08/16 01:30:11;;;;;;;4.13;3.83;;;26.20;62.90;;;;;;5033639;28;20458;-72
2023/08/16 01:32:38;;;;;;;4.70;4.30;;;26.20;62.90;;;;;;5033979;28;20564;-73
2023/08/16 01:35:04;;;;;;;4.40;4.10;;;26.20;62.90;;;;;;5016177;28;20760;-73
2023/08/16 01:37:29;;;;;;;4.00;3.70;;;26.20;62.90;;;;;;5033877;28;20457;-73
2023/08/16 01:40:00;;;;;;;3.83;3.53;;;26.20;62.90;;;;;;5016037;28;20188;-73
2023/08/16 01:42:34;;;;;;;4.30;3.90;;;26.20;62.90;;;;;;5033856;28;20161;-73
2023/08/16 01:45:00;;;;;;;4.50;4.10;;;26.20;62.90;;;;;;5016018;28;20973;-72
2023/08/16 01:47:28;;;;;;;5.07;4.40;;;26.20;62.90;;;;;;5033719;28;20419;-73
2023/08/16 01:49:55;;;;;;;4.43;4.00;;;26.20;62.90;;;;;;5033693;28;20510;-73
2023/08/16 01:52:21;;;;;;;3.73;3.43;;;26.20;62.90;;;;;;5033583;28;20832;-73
2023/08/16 01:54:47;;;;;;;5.13;4.67;;;26.20;62.80;;;;;;5033476;28;20402;-73
2023/08/16 01:57:12;;;;;;;3.90;3.50;;;26.20;62.80;;;;;;5033563;28;20468;-72
2023/08/16 01:59:38;;;;;;;4.03;3.73;;;26.20;62.90;;;;;;5033394;28;20192;-73
2023/08/16 02:02:05;;;;;;;4.70;3.50;;;26.20;62.90;;;;;;5015803;28;20204;-73
2023/08/16 02:04:30;;;;;;;4.47;4.10;;;26.20;62.90;;;;;;5033416;28;20606;-73
2023/08/16 02:06:56;;;;;;;3.83;3.53;;;26.20;62.80;;;;;;5015573;28;20505;-73
2023/08/16 02:09:21;;;;;;;4.07;3.77;;;26.20;62.90;;;;;;5033203;28;20167;-73
2023/08/16 02:11:47;;;;;;;4.27;3.87;;;26.20;62.80;;;;;;5033252;28;20167;-73
2023/08/16 02:14:12;;;;;;;4.30;4.00;;;26.20;62.80;;;;;;5033125;28;20199;-73
2023/08/16 02:16:38;;;;;;;3.70;3.40;;;26.20;62.90;;;;;;5015663;28;20202;-73
2023/08/16 02:19:04;;;;;;;4.00;3.70;;;26.20;62.90;;;;;;5033164;28;20246;-73
2023/08/16 02:21:29;;;;;;;4.03;3.73;;;26.20;62.90;;;;;;5033046;28;20279;-73
2023/08/16 02:23:55;;;;;;;4.20;3.90;;;26.20;62.90;;;;;;5032989;28;20652;-72
2023/08/16 02:26:22;;;;;;;3.77;3.47;;;26.20;62.90;;;;;;5032961;28;20257;-73
2023/08/16 02:28:49;;;;;;;3.70;3.40;;;26.20;62.90;;;;;;5032957;28;20175;-73
2023/08/16 02:31:16;;;;;;;3.67;3.37;;;26.20;62.90;;;;;;5032537;28;20959;-73
2023/08/16 02:33:42;;;;;;;3.27;3.07;;;26.20;62.90;;;;;;5032554;28;20450;-74
2023/08/16 02:36:08;;;;;;;3.93;3.63;;;26.20;62.90;;;;;;5032860;28;20513;-74
2023/08/16 02:38:33;;;;;;;3.60;3.30;;;26.20;62.80;;;;;;5032823;28;20549;-73
2023/08/16 02:40:59;;;;;;;4.10;3.73;;;26.20;62.90;;;;;;5032614;28;20433;-73
2023/08/16 02:43:24;;;;;;;3.93;3.63;;;26.20;62.90;;;;;;5014995;28;20245;-73
2023/08/16 02:45:50;;;;;;;3.40;3.10;;;26.20;62.80;;;;;;5032696;28;20247;-73
2023/08/16 02:48:16;;;;;;;3.90;3.60;;;26.20;62.80;;;;;;5032598;28;20175;-72
2023/08/16 02:50:42;;;;;;;3.80;3.50;;;26.20;62.90;;;;;;5032463;28;20711;-73
2023/08/16 02:53:07;;;;;;;4.00;3.70;;;26.20;62.80;;;;;;5032361;28;20188;-73
2023/08/16 02:55:33;;;;;;;3.50;3.20;;;26.20;62.90;;;;;;5032372;28;20411;-73
2023/08/16 02:57:58;;;;;;;4.33;4.00;;;26.20;62.80;;;;;;5032435;28;20171;-73
2023/08/16 03:00:24;;;;;;;4.00;3.70;;;26.20;62.80;;;;;;5032309;28;20187;-73
2023/08/16 03:02:50;;;;;;;3.67;3.37;;;26.20;62.90;;;;;;5032332;28;20548;-73
2023/08/16 03:05:15;;;;;;;4.17;3.87;;;26.20;62.80;;;;;;5014580;28;20175;-73
2023/08/16 03:07:41;;;;;;;3.67;3.37;;;26.20;62.80;;;;;;5032258;28;20168;-73
2023/08/16 03:10:07;;;;;;;3.90;3.60;;;26.20;62.90;;;;;;5032209;28;20219;-73
2023/08/16 03:12:33;;;;;;;2.90;2.70;;;26.20;62.80;;;;;;5032097;28;20248;-73
2023/08/16 03:14:58;;;;;;;3.17;2.97;;;26.20;62.90;;;;;;5032102;28;20819;-73
2023/08/16 03:17:24;;;;;;;3.97;3.67;;;26.20;62.90;;;;;;5032398;28;20180;-73
2023/08/16 03:19:50;;;;;;;4.10;3.80;;;26.20;62.90;;;;;;5032294;28;20195;-72
2023/08/16 03:22:15;;;;;;;3.30;3.03;;;26.20;62.80;;;;;;5032077;28;20414;-73
2023/08/16 03:24:41;;;;;;;3.87;3.57;;;26.20;62.80;;;;;;5032284;28;20178;-73
2023/08/16 03:27:07;;;;;;;3.90;3.60;;;26.20;62.80;;;;;;5032228;28;20676;-73
2023/08/16 03:29:33;;;;;;;3.60;3.30;;;26.20;62.80;;;;;;5031844;28;20553;-73
2023/08/16 03:31:58;;;;;;;3.63;3.33;;;26.20;62.90;;;;;;5031927;28;20407;-73
2023/08/16 03:34:24;;;;;;;3.50;3.30;;;26.20;62.80;;;;;;5031867;28;20199;-73
2023/08/16 03:36:49;;;;;;;3.47;3.17;;;26.20;62.80;;;;;;5014121;28;20218;-72
2023/08/16 03:39:15;;;;;;;3.50;3.20;;;26.20;63.60;;;;;;5031936;28;20176;-73
2023/08/16 03:41:41;;;;;;;3.50;3.20;;;26.20;62.90;;;;;;5031806;28;20270;-73
2023/08/16 03:44:06;;;;;;;4.40;3.13;;;26.20;62.80;;;;;;5032994;28;20229;-72
2023/08/16 03:46:36;;;;;;;4.00;3.70;;;26.20;62.80;;;;;;5036025;28;20251;-73
2023/08/16 03:49:01;;;;;;;3.73;3.43;;;26.20;62.80;;;;;;5036055;28;20250;-73
2023/08/16 03:51:27;;;;;;;3.57;3.27;;;26.20;62.80;;;;;;5036143;28;20997;-73
2023/08/16 03:53:52;;;;;;;3.80;3.50;;;26.20;62.80;;;;;;5035832;28;20191;-73
2023/08/16 03:56:18;;;;;;;3.33;3.03;;;26.20;62.80;;;;;;5035884;28;20184;-73
2023/08/16 03:58:44;;;;;;;4.37;4.03;;;26.20;62.80;;;;;;5035749;28;20168;-73
2023/08/16 04:01:09;;;;;;;3.20;2.97;;;26.20;62.80;;;;;;5035768;28;20191;-73
2023/08/16 04:03:35;;;;;;;3.53;3.23;;;26.20;62.80;;;;;;5035693;28;20176;-73
2023/08/16 04:06:01;;;;;;;3.60;3.30;;;26.20;62.70;;;;;;5035906;28;20179;-74
2023/08/16 04:08:26;;;;;;;4.03;3.73;;;26.20;62.70;;;;;;5035938;28;20313;-73
2023/08/16 04:10:52;;;;;;;3.70;3.33;;;26.20;62.80;;;;;;5035468;28;20249;-73
2023/08/16 04:13:17;;;;;;;3.30;3.07;;;26.20;62.80;;;;;;5035456;28;20199;-74
2023/08/16 04:15:43;;;;;;;3.63;3.33;;;26.20;62.80;;;;;;5035910;28;20203;-73
2023/08/16 04:18:09;;;;;;;3.10;2.90;;;26.20;62.80;;;;;;5035441;28;20676;-73
2023/08/16 04:20:34;;;;;;;3.50;3.20;;;26.20;62.70;;;;;;5035323;28;20191;-73
2023/08/16 04:23:00;;;;;;;3.77;3.47;;;26.20;62.70;;;;;;5035329;28;20178;-72
2023/08/16 04:25:26;;;;;;;3.47;3.20;;;26.20;62.70;;;;;;5035339;28;20263;-73
2023/08/16 04:27:51;;;;;;;3.33;3.10;;;26.20;62.70;;;;;;5035242;28;20222;-73
2023/08/16 04:30:17;;;;;;;3.50;3.20;;;26.20;62.70;;;;;;5035191;28;20673;-73
2023/08/16 04:32:43;;;;;;;3.73;3.43;;;26.20;62.70;;;;;;5017498;28;20206;-73
2023/08/16 04:35:09;;;;;;;3.47;3.20;;;26.20;62.80;;;;;;5035733;28;20667;-73
2023/08/16 04:37:34;;;;;;;3.67;3.37;;;26.20;62.70;;;;;;5035080;28;20195;-72
2023/08/16 04:40:00;;;;;;;3.60;3.40;;;26.20;62.80;;;;;;5034936;28;20430;-73
2023/08/16 04:42:26;;;;;;;3.17;2.97;;;26.20;62.80;;;;;;5017485;28;20172;-73
2023/08/16 04:44:52;;;;;;;3.73;3.43;;;26.20;62.80;;;;;;5034966;28;20199;-73
2023/08/16 04:47:18;;;;;;;3.43;3.13;;;26.20;62.80;;;;;;5035211;28;20472;-73
2023/08/16 04:49:43;;;;;;;3.90;3.60;;;26.20;62.80;;;;;;5034768;28;20422;-72
2023/08/16 04:52:09;;;;;;;3.00;2.77;;;26.20;62.80;;;;;;5017053;28;20270;-73
2023/08/16 04:54:34;;;;;;;4.03;3.73;;;26.20;62.70;;;;;;5034545;28;20199;-72
2023/08/16 04:57:00;;;;;;;3.40;3.20;;;26.20;62.80;;;;;;5034733;28;20163;-73
2023/08/16 04:59:26;;;;;;;3.20;3.00;;;26.20;62.80;;;;;;5034602;28;20306;-72
2023/08/16 05:01:51;;;;;;;3.10;2.87;;;26.20;62.80;;;;;;5034668;28;20171;-73
2023/08/16 05:04:17;;;;;;;3.60;3.30;;;26.20;62.80;;;;;;5034597;28;20175;-72
2023/08/16 05:06:43;;;;;;;3.93;3.63;;;26.20;63.60;;;;;;5034490;28;20190;-73
2023/08/16 05:09:08;;;;;;;3.57;3.27;;;26.20;62.80;;;;;;5034561;28;20175;-73
2023/08/16 05:11:35;;;;;;;2.77;2.57;;;26.20;62.80;;;;;;5016619;28;20764;-72
2023/08/16 05:14:00;;;;;;;3.33;3.13;;;26.20;62.80;;;;;;5034397;28;20204;-72
2023/08/16 05:16:26;;;;;;;3.67;3.47;;;26.20;62.80;;;;;;5034272;28;20410;-72
2023/08/16 05:18:52;;;;;;;3.37;2.90;;;26.20;62.80;;;;;;5034312;28;20176;-72
2023/08/16 05:21:18;;;;;;;3.57;3.27;;;26.20;62.90;;;;;;5034200;28;20676;-73
2023/08/16 05:23:44;;;;;;;3.37;3.17;;;26.20;62.80;;;;;;5034470;28;20489;-73
2023/08/16 05:26:10;;;;;;;3.33;3.13;;;26.20;62.80;;;;;;5034139;28;20936;-73
2023/08/16 05:28:36;;;;;;;3.10;2.80;;;26.20;62.80;;;;;;5034197;28;20179;-73
2023/08/16 05:31:11;;;;;;;3.20;3.00;;;26.20;62.80;;;;;;5033960;28;20214;-72
2023/08/16 05:33:40;;;;;;;3.23;2.90;;;26.20;62.80;;;;;;5034006;28;20222;-72
2023/08/16 05:36:06;;;;;;;3.47;3.17;;;26.20;62.90;;;;;;5033989;28;20488;-72
2023/08/16 05:38:32;;;;;;;2.90;2.70;;;26.20;62.80;;;;;;5034227;28;20418;-72
2023/08/16 05:40:58;;;;;;;3.17;2.97;;;26.20;62.80;;;;;;5015827;28;20895;-71
2023/08/16 05:43:24;;;;;;;3.70;3.40;;;26.20;62.90;;;;;;5033843;28;20176;-71
2023/08/16 05:45:51;;;;;;;3.60;3.30;;;26.20;62.90;;;;;;5016346;28;20919;-72
2023/08/16 05:48:16;;;;;;;3.30;3.10;;;26.20;62.80;;;;;;5033757;28;20175;-72
2023/08/16 05:50:42;;;;;;;3.27;3.07;;;26.20;62.80;;;;;;5033611;28;20437;-73
2023/08/16 05:53:08;;;;;;;3.13;2.93;;;26.20;62.80;;;;;;5033535;28;20640;-72
2023/08/16 05:55:34;;;;;;;3.07;2.87;;;26.20;62.80;;;;;;5033612;28;20174;-72
2023/08/16 05:58:00;;;;;;;3.60;3.30;;;26.20;62.80;;;;;;5033891;28;20214;-73
2023/08/16 06:00:25;;;;;;;3.43;3.23;;;26.20;62.80;;;;;;5033432;28;20460;-73
2023/08/16 06:02:52;;;;;;;3.63;3.33;;;26.20;62.90;;;;;;5033163;28;20923;-72
2023/08/16 06:05:18;;;;;;;3.03;2.83;;;26.20;62.80;;;;;;5015277;28;20183;-72
2023/08/16 06:07:50;;;;;;;3.33;3.03;;;26.20;62.80;;;;;;5032536;28;20415;-72
2023/08/16 06:10:15;;;;;;;3.23;2.93;;;26.30;62.90;;;;;;5015455;28;20438;-72
2023/08/16 06:12:41;;;;;;;3.60;3.30;;;26.20;62.80;;;;;;5033187;28;20500;-73
2023/08/16 06:15:11;;;;;;;3.63;3.33;;;26.20;62.70;;;;;;5033283;28;20191;-72
2023/08/16 06:17:37;;;;;;;3.03;2.83;;;26.20;62.80;;;;;;5033189;28;20164;-73
2023/08/16 06:20:04;;;;;;;3.63;3.33;;;26.30;62.80;;;;;;5033139;28;20803;-73
2023/08/16 06:22:33;;;;;;;3.03;2.73;;;26.20;62.80;;;;;;5033174;28;20975;-71
2023/08/16 06:24:58;;;;;;;3.33;3.10;;;26.20;62.70;;;;;;5015799;28;20428;-72
2023/08/16 06:27:24;;;;;;;3.20;2.90;;;26.30;62.80;;;;;;5015253;28;20417;-73
2023/08/16 06:29:50;;;;;;;2.93;2.73;;;26.30;62.80;;;;;;5032813;28;20246;-73
2023/08/16 06:32:16;;;;;;;3.17;2.93;;;26.20;62.80;;;;;;5032888;28;20500;-72
2023/08/16 06:34:41;;;;;;;3.17;2.97;;;26.30;62.80;;;;;;5032853;28;20183;-72
2023/08/16 06:37:07;;;;;;;3.03;2.83;;;26.30;62.80;;;;;;5033102;28;20310;-72
2023/08/16 06:39:33;;;;;;;3.00;2.80;;;26.30;62.80;;;;;;5032672;28;20176;-73
2023/08/16 06:41:58;;;;;;;3.20;3.00;;;26.30;62.80;;;;;;5032768;28;20182;-73
2023/08/16 06:44:24;;;;;;;2.90;2.70;;;26.30;62.80;;;;;;5032744;28;20167;-73
2023/08/16 06:46:50;;;;;;;3.57;3.27;;;26.30;62.80;;;;;;5032479;28;20247;-73
2023/08/16 06:49:15;;;;;;;3.20;3.00;;;26.30;62.80;;;;;;5032626;28;20255;-73
2023/08/16 06:51:41;;;;;;;3.53;3.23;;;26.30;62.90;;;;;;5032481;28;20242;-73
2023/08/16 06:54:07;;;;;;;2.97;2.67;;;26.30;62.90;;;;;;5032370;28;20612;-72
2023/08/16 06:56:34;;;;;;;3.00;2.80;;;26.30;62.90;;;;;;5032467;28;20707;-72
2023/08/16 06:58:59;;;;;;;3.70;3.00;;;26.30;62.90;;;;;;5032426;28;20438;-72
2023/08/16 07:01:25;;;;;;;3.40;3.10;;;26.30;62.90;;;;;;5032476;28;20201;-72
2023/08/16 07:03:51;;;;;;;3.33;3.03;;;26.30;63.00;;;;;;5032679;28;20180;-72
2023/08/16 07:06:17;;;;;;;3.80;3.43;;;26.30;63.00;;;;;;5032431;28;20182;-72
2023/08/16 07:08:43;;;;;;;3.17;2.97;;;26.30;63.00;;;;;;5032344;28;20672;-72
2023/08/16 07:11:08;;;;;;;3.23;3.00;;;26.30;63.00;;;;;;5032149;28;20426;-72
2023/08/16 07:13:34;;;;;;;2.93;2.73;;;26.30;63.00;;;;;;5032371;28;20246;-73
2023/08/16 07:15:59;;;;;;;3.10;2.80;;;26.30;63.00;;;;;;5032201;28;20581;-73
2023/08/16 07:18:25;;;;;;;2.90;2.70;;;26.30;62.90;;;;;;5014384;28;20176;-72
2023/08/16 07:20:51;;;;;;;3.33;2.87;;;26.30;62.90;;;;;;5032668;28;20198;-73
2023/08/16 07:23:16;;;;;;;2.70;2.50;;;26.30;62.90;;;;;;5014367;28;20645;-73
2023/08/16 07:25:42;;;;;;;3.13;2.63;;;26.30;62.90;;;;;;5032098;28;20180;-72
2023/08/16 07:28:08;;;;;;;3.87;3.00;;;26.30;62.90;;;;;;5014353;28;20187;-72
2023/08/16 07:30:37;;;;;;;4.00;3.60;;;26.30;62.80;;;;;;5031885;28;20357;-72
2023/08/16 07:33:04;;;;;;;2.80;2.60;;;26.30;62.80;;;;;;5032152;28;20207;-72
2023/08/16 07:35:30;;;;;;;2.40;2.20;;;26.30;62.80;;;;;;5031952;28;20421;-71
2023/08/16 07:37:56;;;;;;;2.90;2.60;;;26.30;62.80;;;;;;5032181;28;20414;-73
2023/08/16 07:40:21;;;;;;;2.93;2.73;;;26.30;62.80;;;;;;5032143;28;20441;-74
2023/08/16 07:42:47;;;;;;;3.23;2.97;;;26.30;62.70;;;;;;5014358;28;20619;-73
2023/08/16 07:45:13;;;;;;;4.40;3.67;;;26.30;62.70;;;;;;5031867;28;20262;-73
2023/08/16 07:47:38;;;;;;;3.00;2.80;;;26.30;62.70;;;;;;5031861;28;20175;-73
2023/08/16 07:50:04;;;;;;;3.00;2.80;;;26.30;62.70;;;;;;5031858;28;20206;-72
2023/08/16 07:52:30;;;;;;;3.23;2.80;;;26.30;63.50;;;;;;5031991;28;20180;-73
2023/08/16 07:54:56;;;;;;;3.07;2.87;;;26.30;62.70;;;;;;5032019;28;20420;-73
2023/08/16 07:57:21;;;;;;;4.77;3.27;;;26.40;62.70;;;;;;5031799;28;20175;-73
2023/08/16 07:59:47;;;;;;;2.87;2.50;;;26.30;62.60;;;;;;5031638;28;20191;-72
2023/08/16 08:02:12;;;;;;;2.77;2.57;;;26.30;62.60;;;;;;5031743;28;20183;-72
2023/08/16 08:04:38;;;;;;;3.20;3.00;;;26.40;62.60;;;;;;5031655;28;20241;-73
2023/08/16 08:07:04;;;;;;;2.67;2.47;;;26.30;62.60;;;;;;5014218;28;20237;-72
2023/08/16 08:09:31;;;;;;;3.10;2.87;;;26.30;62.60;;;;;;5031614;28;20606;-73
2023/08/16 08:11:57;;;;;;;3.00;2.80;;;26.30;62.50;;;;;;5031687;28;20803;-73
2023/08/16 08:14:23;;;;;;;2.80;2.53;;;26.40;62.60;;;;;;5031569;28;20955;-73
2023/08/16 08:16:49;;;;;;;2.60;2.40;;;26.40;62.60;;;;;;5031610;28;20448;-73
2023/08/16 08:19:15;;;;;;;2.83;2.63;;;26.40;62.60;;;;;;5031799;28;20176;-73
2023/08/16 08:21:40;;;;;;;2.90;2.70;;;26.40;62.60;;;;;;5031433;28;20449;-73
2023/08/16 08:24:06;;;;;;;3.50;3.20;;;26.40;62.60;;;;;;5031595;28;20210;-73
2023/08/16 08:26:32;;;;;;;3.23;2.93;;;26.40;62.60;;;;;;5031505;28;20262;-73
2023/08/16 08:28:57;;;;;;;3.23;3.03;;;26.40;62.60;;;;;;5031499;28;20198;-72
2023/08/16 08:31:23;;;;;;;2.60;2.40;;;26.40;62.60;;;;;;5034289;28;20698;-73
2023/08/16 08:33:49;;;;;;;3.10;2.90;;;26.40;62.60;;;;;;5035099;28;20219;-74
2023/08/16 08:36:15;;;;;;;3.27;2.97;;;26.40;62.60;;;;;;5035151;28;20176;-73
2023/08/16 08:38:41;;;;;;;2.77;2.57;;;26.40;62.60;;;;;;5035352;28;20418;-72
2023/08/16 08:41:08;;;;;;;3.00;2.80;;;26.40;62.60;;;;;;5035257;28;21004;-74
2023/08/16 08:43:35;;;;;;;3.10;2.80;;;26.40;62.60;;;;;;5035241;28;20497;-73
2023/08/16 08:46:02;;;;;;;3.50;3.20;;;26.40;62.60;;;;;;5035033;28;20756;-73
2023/08/16 08:48:29;;;;;;;3.00;2.67;;;26.40;62.60;;;;;;5034812;28;20927;-73
2023/08/16 08:50:55;;;;;;;3.00;2.80;;;26.40;62.60;;;;;;5017018;28;20921;-73
2023/08/16 08:53:22;;;;;;;2.77;2.57;;;26.40;62.60;;;;;;5017003;28;20468;-73
2023/08/16 08:55:52;;;;;;;3.13;2.83;;;26.40;62.50;;;;;;5034376;28;20818;-73
2023/08/16 08:58:19;;;;;;;3.23;2.97;;;26.40;62.50;;;;;;5034728;28;20506;-74
2023/08/16 09:00:46;;;;;;;3.10;2.90;;;26.40;62.50;;;;;;5034785;28;20426;-73
2023/08/16 09:03:20;;;;;;;2.97;2.70;;;26.40;62.50;;;;;;5016836;28;20436;-74
2023/08/16 09:05:47;;;;;;;3.23;2.93;;;26.40;62.50;;;;;;5034879;28;20406;-73
2023/08/16 09:08:15;;;;;;;3.27;3.00;;;26.40;62.50;;;;;;5034797;28;20774;-73
2023/08/16 09:10:45;;;;;;;2.80;2.60;;;26.40;62.50;;;;;;5000556;28;20443;-72
2023/08/16 09:13:12;;;;;;;2.50;2.30;;;26.40;62.50;;;;;;5034325;28;20488;-73
2023/08/16 09:15:38;;;;;;;2.80;2.60;;;26.40;62.50;;;;;;5034581;28;20903;-73
2023/08/16 09:18:12;;;;;;;2.70;2.50;;;26.40;62.50;;;;;;5034431;28;20449;-72
2023/08/16 09:20:39;;;;;;;2.90;2.70;;;26.40;62.50;;;;;;5016557;28;20442;-73
2023/08/16 09:23:05;;;;;;;2.73;2.53;;;26.40;62.50;;;;;;5034338;28;20785;-73
2023/08/16 09:25:31;;;;;;;2.60;2.40;;;26.40;62.50;;;;;;5034214;28;20784;-73
2023/08/16 09:27:57;;;;;;;2.67;2.47;;;26.40;62.50;;;;;;5016706;28;20480;-73
2023/08/16 09:30:27;;;;;;;3.00;2.70;;;26.40;62.50;;;;;;5034039;28;20462;-73
2023/08/16 09:32:53;;;;;;;3.13;2.83;;;26.40;62.50;;;;;;5032330;28;20290;-73
2023/08/16 09:35:29;;;;;;;3.37;3.07;;;26.40;62.50;;;;;;5034057;28;20410;-73
2023/08/16 09:37:59;;;;;;;3.13;2.83;;;26.50;62.60;;;;;;5033833;28;20830;-73
2023/08/16 09:40:25;;;;;;;2.73;2.53;;;26.50;62.60;;;;;;5033877;28;20434;-73
2023/08/16 09:42:52;;;;;;;2.50;2.30;;;26.50;62.60;;;;;;5032243;28;20935;-73
2023/08/16 09:45:34;;;;;;;2.80;2.60;;;26.40;62.50;;;;;;5033183;28;20436;-73
2023/08/16 09:48:01;;;;;;;3.23;2.93;;;26.50;62.60;;;;;;5015756;28;20986;-73
2023/08/16 09:50:27;;;;;;;2.60;2.40;;;26.40;62.50;;;;;;5033745;28;20537;-73
2023/08/16 09:52:53;;;;;;;2.70;2.50;;;26.50;62.60;;;;;;5033704;28;20612;-73
2023/08/16 09:55:26;;;;;;;2.80;2.60;;;26.40;62.50;;;;;;5033650;28;20493;-73
2023/08/16 09:57:54;;;;;;;2.57;2.37;;;26.50;62.60;;;;;;5033436;28;20403;-71
2023/08/16 10:00:22;;;;;;;2.73;2.53;;;26.40;62.50;;;;;;5015248;28;20457;-72
2023/08/16 10:02:49;;;;;;;2.23;2.03;;;26.50;62.60;;;;;;5033671;28;20588;-71
2023/08/16 10:05:16;;;;;;;2.93;2.73;;;26.40;62.60;;;;;;5033363;28;20406;-72
2023/08/16 10:07:42;;;;;;;4.43;2.60;;;26.50;62.60;;;;;;5033210;28;20438;-72
2023/08/16 10:10:09;;;;;;;3.10;2.80;;;26.40;62.50;;;;;;5033084;28;20438;-72
2023/08/16 10:12:38;;;;;;;2.50;2.30;;;26.40;62.50;;;;;;5033076;28;20504;-74
2023/08/16 10:15:04;;;;;;;2.60;2.40;;;26.50;62.60;;;;;;5033428;28;20513;-74
2023/08/16 10:17:31;;;;;;;3.30;3.00;;;26.50;62.60;;;;;;5033236;28;20560;-74
2023/08/16 10:20:00;;;;;;;3.13;2.83;;;26.40;62.50;;;;;;5033037;28;20434;-73
2023/08/16 10:22:37;;;;;;;2.70;2.50;;;26.50;62.60;;;;;;5033198;28;20417;-73
2023/08/16 10:25:11;;;;;;;2.87;2.67;;;26.50;62.60;;;;;;5033054;28;20394;-74
2023/08/16 10:27:38;;;;;;;2.60;2.40;;;26.50;62.60;;;;;;5033053;28;20421;-74
2023/08/16 10:30:07;;;;;;;2.63;2.43;;;26.40;62.50;;;;;;5032783;28;20450;-74
2023/08/16 10:32:40;;;;;;;2.97;2.73;;;26.50;62.60;;;;;;5032750;28;20410;-74
2023/08/16 10:35:07;;;;;;;2.90;2.70;;;26.50;62.60;;;;;;5032987;28;20911;-73
2023/08/16 10:37:33;;;;;;;2.50;2.30;;;26.50;62.60;;;;;;5032984;28;20911;-73
2023/08/16 10:39:59;;;;;;;2.80;2.40;;;26.50;62.60;;;;;;5032815;28;20509;-74
2023/08/16 10:42:29;;;;;;;2.80;2.60;;;26.50;62.60;;;;;;5032701;28;20182;-72
2023/08/16 10:44:55;;;;;;;2.50;2.30;;;26.50;62.60;;;;;;5032683;28;20182;-74
2023/08/16 10:47:30;;;;;;;2.80;2.60;;;26.50;62.60;;;;;;5032597;28;20414;-73
2023/08/16 10:49:59;;;;;;;2.80;2.57;;;26.50;62.60;;;;;;5032624;28;20199;-73
2023/08/16 10:52:32;;;;;;;3.27;2.97;;;26.50;62.60;;;;;;5032194;28;20453;-74
2023/08/16 10:54:59;;;;;;;2.97;2.70;;;26.50;62.50;;;;;;5032400;28;20872;-72
2023/08/16 10:57:26;;;;;;;3.10;2.90;;;26.50;62.60;;;;;;5031726;28;20410;-73
2023/08/16 11:00:03;;;;;;;2.60;2.40;;;26.50;62.60;;;;;;5032289;28;20419;-73
2023/08/16 11:02:35;;;;;;;2.77;2.57;;;26.50;62.60;;;;;;4998510;28;20923;-72
2023/08/16 11:05:00;;;;;;;2.70;2.50;;;26.50;62.60;;;;;;5032473;28;20414;-73
2023/08/16 11:07:28;;;;;;;2.60;2.40;;;26.50;62.50;;;;;;5032296;28;20880;-72
2023/08/16 11:10:00;;;;;;;2.60;2.40;;;26.50;62.60;;;;;;5032401;28;20722;-73
2023/08/16 11:12:34;;;;;;;2.30;2.10;;;26.50;62.60;;;;;;5032201;28;20395;-73
2023/08/16 11:15:00;;;;;;;2.63;2.43;;;26.50;62.60;;;;;;5032347;28;20433;-73
2023/08/16 11:17:26;;;;;;;2.87;2.67;;;26.60;62.60;;;;;;5032354;28;20502;-73
2023/08/16 11:19:55;;;;;;;4.53;2.43;;;26.50;62.50;;;;;;5014173;28;20453;-73
2023/08/16 11:22:22;;;;;;;2.73;2.53;;;26.60;62.60;;;;;;5032144;28;20426;-71
2023/08/16 11:24:49;;;;;;;2.90;2.57;;;26.50;62.50;;;;;;5014603;28;20418;-72
2023/08/16 11:27:24;;;;;;;2.23;2.03;;;26.50;62.50;;;;;;5031907;28;20792;-71
2023/08/16 11:29:59;;;;;;;2.83;2.63;;;26.50;62.60;;;;;;5013840;28;20470;-72
2023/08/16 11:32:31;;;;;;;2.83;2.50;;;26.50;62.50;;;;;;5031981;28;20821;-72
2023/08/16 11:34:56;;;;;;;2.80;2.60;;;26.50;62.50;;;;;;5031943;28;20457;-72
2023/08/16 11:37:22;;;;;;;3.00;2.70;;;26.50;62.50;;;;;;5031978;28;20826;-72
2023/08/16 11:39:58;;;;;;;2.57;2.23;;;26.50;62.50;;;;;;5014153;28;20210;-72
2023/08/16 11:42:28;;;;;;;2.87;2.67;;;26.50;62.50;;;;;;5031945;28;20164;-72
2023/08/16 11:44:54;;;;;;;2.33;2.13;;;26.50;62.60;;;;;;5031862;28;20502;-72
2023/08/16 11:47:20;;;;;;;2.73;2.20;;;26.50;62.50;;;;;;5031849;28;20501;-72
2023/08/16 11:49:48;;;;;;;2.57;2.37;;;26.60;62.60;;;;;;5031816;28;20196;-72
2023/08/16 11:52:18;;;;;;;2.40;2.10;;;26.50;62.50;;;;;;5031715;28;20176;-72
2023/08/16 11:54:44;;;;;;;3.30;2.57;;;26.50;62.50;;;;;;5031729;28;20449;-71
2023/08/16 11:57:18;;;;;;;2.50;2.30;;;26.50;62.50;;;;;;5031992;28;20418;-71
2023/08/16 11:59:52;;;;;;;3.03;2.50;;;26.50;63.30;;;;;;5031760;28;20211;-72
2023/08/16 12:02:18;;;;;;;3.20;2.90;;;26.60;62.50;;;;;;5014028;28;20417;-72
2023/08/16 12:04:43;;;;;;;2.90;2.60;;;26.50;62.50;;;;;;5032069;28;20418;-70
2023/08/16 12:07:10;;;;;;;2.43;2.00;;;26.50;62.50;;;;;;5035638;28;20255;-72
2023/08/16 12:09:40;;;;;;;2.47;2.20;;;26.60;62.60;;;;;;5035400;28;20172;-72
2023/08/16 12:12:08;;;;;;;2.40;2.20;;;26.50;62.50;;;;;;5035550;28;20425;-71
2023/08/16 12:14:33;;;;;;;3.17;2.70;;;26.50;62.40;;;;;;5035513;28;20450;-71
2023/08/16 12:17:00;;;;;;;3.33;2.90;;;26.50;62.50;;;;;;5035431;28;20414;-72
2023/08/16 12:19:25;;;;;;;2.80;2.60;;;26.50;62.50;;;;;;5035307;28;20262;-72
2023/08/16 12:21:52;;;;;;;2.60;2.40;;;26.50;62.50;;;;;;5035374;28;20505;-72
2023/08/16 12:24:19;;;;;;;2.90;2.47;;;26.50;62.50;;;;;;5035309;28;20641;-72
2023/08/16 12:26:45;;;;;;;2.60;2.40;;;26.60;62.60;;;;;;5035523;28;20891;-71
2023/08/16 12:29:10;;;;;;;2.90;2.30;;;26.50;63.40;;;;;;5035085;28;20430;-71
2023/08/16 12:31:36;;;;;;;3.50;3.20;;;26.60;62.70;;;;;;5035187;28;20445;-72
2023/08/16 12:34:02;;;;;;;3.30;3.07;;;26.60;62.70;;;;;;5035086;28;20282;-73
2023/08/16 12:36:27;;;;;;;3.43;2.97;;;26.60;62.70;;;;;;5035096;28;20176;-71
2023/08/16 12:38:53;;;;;;;2.67;2.47;;;26.60;62.70;;;;;;5035079;28;20181;-72
2023/08/16 12:41:19;;;;;;;3.40;2.67;;;26.60;62.80;;;;;;5035014;28;20536;-72
2023/08/16 12:43:47;;;;;;;3.37;3.07;;;26.60;62.80;;;;;;5035059;28;20251;-71
2023/08/16 12:46:13;;;;;;;3.50;2.87;;;26.60;62.90;;;;;;5034929;28;20164;-73